createdAt,value
2023-04-01T00:00:59.606Z,100.00
2023-04-01T00:03:28.034Z,100.00
2023-04-01T00:05:56.830Z,100.00
2023-04-01T00:08:24.144Z,100.00
2023-04-01T00:10:51.130Z,100.00
2023-04-01T00:13:18.120Z,100.00
2023-04-01T00:15:45.131Z,100.00
2023-04-01T00:18:12.151Z,100.00
2023-04-01T00:20:38.958Z,100.00
2023-04-01T00:23:06.385Z,100.00
2023-04-01T00:25:33.454Z,100.00
2023-04-01T00:28:00.501Z,100.00
2023-04-01T00:30:27.371Z,100.00
2023-04-01T00:32:54.656Z,100.00
2023-04-01T00:35:21.688Z,100.00
2023-04-01T00:37:48.537Z,100.00
2023-04-01T00:40:38.073Z,100.00
2023-04-01T00:43:10.054Z,100.00
2023-04-01T00:45:39.322Z,100.00
2023-04-01T00:48:11.850Z,100.00
2023-04-01T00:50:39.799Z,100.00
2023-04-01T00:53:06.758Z,100.00
2023-04-01T00:55:34.821Z,100.00
2023-04-01T00:58:01.623Z,100.00
2023-04-01T01:00:28.471Z,100.00
2023-04-01T01:02:55.677Z,100.00
2023-04-01T01:05:28.029Z,100.00
2023-04-01T01:08:16.674Z,100.00
2023-04-01T01:10:43.480Z,100.00
2023-04-01T01:13:18.409Z,100.00
2023-04-01T01:15:51.382Z,100.00
2023-04-01T01:18:39.482Z,100.00
2023-04-01T01:21:21.117Z,100.00
2023-04-01T01:24:09.511Z,100.00
2023-04-01T01:26:39.110Z,100.00
2023-04-01T01:29:31.009Z,100.00
2023-04-01T01:32:19.053Z,100.00
2023-04-01T01:34:46.107Z,100.00
2023-04-01T01:37:17.530Z,100.00
2023-04-01T01:39:45.551Z,100.00
2023-04-01T01:42:14.571Z,100.00
2023-04-01T01:44:41.536Z,100.00
2023-04-01T01:47:08.332Z,100.00
2023-04-01T01:49:35.143Z,100.00
2023-04-01T01:52:02.146Z,100.00
2023-04-01T01:54:28.956Z,100.00
2023-04-01T01:57:06.769Z,100.00
2023-04-01T01:59:34.477Z,100.00
2023-04-01T02:02:01.701Z,100.00
2023-04-01T02:04:28.749Z,100.00
2023-04-01T02:07:04.026Z,100.00
2023-04-01T02:09:31.010Z,100.00
2023-04-01T02:12:02.542Z,100.00
2023-04-01T02:14:56.620Z,100.00
2023-04-01T02:17:28.853Z,100.00
2023-04-01T02:19:58.408Z,100.00
2023-04-01T02:22:46.406Z,100.00
2023-04-01T02:25:18.565Z,100.00
2023-04-01T02:27:46.043Z,100.00
2023-04-01T02:30:14.011Z,100.00
2023-04-01T02:32:41.001Z,100.00
2023-04-01T02:35:09.982Z,100.00
2023-04-01T02:37:39.151Z,100.00
2023-04-01T02:40:08.546Z,100.00
2023-04-01T02:42:35.430Z,100.00
2023-04-01T02:45:02.718Z,100.00
2023-04-01T02:47:30.260Z,100.00
2023-04-01T02:49:59.630Z,100.00
2023-04-01T02:52:27.183Z,100.00
2023-04-01T02:54:54.241Z,100.00
2023-04-01T02:57:21.231Z,100.00
2023-04-01T02:59:48.162Z,100.00
2023-04-01T03:02:15.124Z,100.00
2023-04-01T03:04:42.129Z,100.00
2023-04-01T03:07:11.004Z,100.00
2023-04-01T03:09:41.096Z,100.00
2023-04-01T03:12:08.192Z,100.00
2023-04-01T03:14:35.012Z,100.00
2023-04-01T03:17:02.000Z,100.00
2023-04-01T03:19:29.033Z,100.00
2023-04-01T03:21:55.969Z,100.00
2023-04-01T03:24:22.837Z,100.00
2023-04-01T03:26:49.683Z,100.00
2023-04-01T03:29:17.026Z,100.00
2023-04-01T03:31:44.210Z,100.00
2023-04-01T03:34:11.061Z,100.00
2023-04-01T03:36:37.865Z,100.00
2023-04-01T03:39:04.952Z,100.00
2023-04-01T03:41:31.884Z,100.00
2023-04-01T03:43:58.688Z,100.00
2023-04-01T03:46:25.580Z,100.00
2023-04-01T03:48:52.438Z,100.00
2023-04-01T03:51:19.242Z,100.00
2023-04-01T03:53:46.351Z,100.00
2023-04-01T03:56:13.185Z,100.00
2023-04-01T03:58:40.243Z,100.00
2023-04-01T04:01:25.803Z,100.00
2023-04-01T04:03:52.755Z,100.00
2023-04-01T04:06:19.863Z,100.00
2023-04-01T04:08:46.734Z,100.00
2023-04-01T04:11:13.703Z,100.00
2023-04-01T04:13:40.600Z,100.00
2023-04-01T04:16:07.543Z,100.00
2023-04-01T04:18:34.397Z,100.00
2023-04-01T04:21:01.224Z,100.00
2023-04-01T04:23:29.458Z,100.00
2023-04-01T04:25:58.137Z,100.00
2023-04-01T04:28:25.299Z,100.00
2023-04-01T04:30:52.234Z,100.00
2023-04-01T04:33:19.178Z,100.00
2023-04-01T04:35:46.037Z,100.00
2023-04-01T04:38:12.958Z,100.00
2023-04-01T04:40:40.560Z,100.00
2023-04-01T04:43:07.338Z,100.00
2023-04-01T04:45:34.453Z,100.00
2023-04-01T04:48:01.901Z,100.00
2023-04-01T04:50:28.801Z,100.00
2023-04-01T04:52:55.920Z,100.00
2023-04-01T04:55:22.816Z,100.00
2023-04-01T04:57:49.649Z,100.00
2023-04-01T05:00:16.741Z,100.00
2023-04-01T05:02:43.645Z,100.00
2023-04-01T05:05:11.546Z,100.00
2023-04-01T05:07:38.461Z,100.00
2023-04-01T05:10:06.051Z,100.00
2023-04-01T05:12:37.021Z,100.00
2023-04-01T05:15:08.157Z,100.00
2023-04-01T05:17:35.095Z,100.00
2023-04-01T05:20:02.324Z,100.00
2023-04-01T05:22:29.149Z,100.00
2023-04-01T05:24:56.348Z,100.00
2023-04-01T05:27:23.231Z,100.00
2023-04-01T05:29:50.084Z,100.00
2023-04-01T05:32:17.091Z,100.00
2023-04-01T05:34:44.031Z,100.00
2023-04-01T05:37:11.422Z,100.00
2023-04-01T05:39:38.936Z,100.00
2023-04-01T05:42:06.972Z,100.00
2023-04-01T05:44:33.777Z,100.00
2023-04-01T05:47:00.676Z,100.00
2023-04-01T05:49:28.366Z,100.00
2023-04-01T05:51:55.868Z,100.00
2023-04-01T05:54:22.714Z,100.00
2023-04-01T05:56:49.673Z,100.00
2023-04-01T05:59:16.534Z,100.00
2023-04-01T06:01:43.295Z,100.00
2023-04-01T06:04:17.211Z,100.00
2023-04-01T06:06:44.094Z,100.00
2023-04-01T06:09:18.335Z,100.00
2023-04-01T06:12:22.571Z,100.00
2023-04-01T06:14:55.998Z,100.00
2023-04-01T06:17:47.532Z,100.00
2023-04-01T06:20:26.272Z,100.00
2023-04-01T06:23:01.907Z,100.00
2023-04-01T06:25:53.769Z,100.00
2023-04-01T06:28:47.710Z,100.00
2023-04-01T06:31:52.153Z,100.00
2023-04-01T06:34:31.378Z,100.00
2023-04-01T06:37:37.285Z,100.00
2023-04-01T06:40:33.361Z,100.00
2023-04-01T06:43:37.468Z,100.00
2023-04-01T06:46:12.006Z,100.00
2023-04-01T06:48:47.759Z,100.00
2023-04-01T06:51:27.657Z,100.00
2023-04-01T06:54:17.031Z,100.00
2023-04-01T06:56:47.508Z,100.00
2023-04-01T06:59:19.216Z,100.00
2023-04-01T07:01:52.906Z,100.00
2023-04-01T07:04:32.991Z,100.00
2023-04-01T07:07:04.819Z,100.00
2023-04-01T07:09:52.240Z,100.00
2023-04-01T07:12:42.369Z,100.00
2023-04-01T07:15:35.155Z,100.00
2023-04-01T07:18:10.778Z,100.00
2023-04-01T07:20:38.203Z,100.00
2023-04-01T07:23:23.187Z,100.00
2023-04-01T07:25:56.601Z,100.00
2023-04-01T07:28:23.450Z,100.00
2023-04-01T07:30:57.159Z,100.00
2023-04-01T07:33:37.558Z,100.00
2023-04-01T07:36:13.643Z,100.00
2023-04-01T07:39:16.889Z,100.00
2023-04-01T07:41:47.211Z,100.00
2023-04-01T07:44:23.042Z,100.00
2023-04-01T07:47:14.337Z,100.00
2023-04-01T07:50:12.048Z,100.00
2023-04-01T07:53:03.883Z,100.00
2023-04-01T07:55:48.936Z,100.00
2023-04-01T07:58:33.946Z,100.00
2023-04-01T08:01:06.942Z,100.00
2023-04-01T08:03:36.439Z,100.00
2023-04-01T08:06:48.069Z,100.00
2023-04-01T08:09:26.791Z,100.00
2023-04-01T08:11:58.316Z,100.00
2023-04-01T08:15:02.579Z,100.00
2023-04-01T08:18:08.364Z,99.47
2023-04-01T08:20:40.904Z,100.00
2023-04-01T08:23:27.631Z,100.00
2023-04-01T08:26:16.301Z,100.00
2023-04-01T08:29:05.359Z,100.00
2023-04-01T08:31:53.951Z,100.00
2023-04-01T08:34:42.480Z,100.00
2023-04-01T08:37:25.647Z,99.45
2023-04-01T08:39:55.233Z,99.35
2023-04-01T08:42:59.265Z,100.00
2023-04-01T08:45:32.308Z,100.00
2023-04-01T08:48:02.468Z,99.14
2023-04-01T08:50:33.406Z,99.39
2023-04-01T08:53:28.337Z,99.46
2023-04-01T08:56:33.849Z,98.23
2023-04-01T08:59:05.990Z,97.58
2023-04-01T09:01:53.809Z,98.47
2023-04-01T09:04:40.898Z,98.81
2023-04-01T09:07:14.302Z,97.95
2023-04-01T09:10:07.116Z,97.05
2023-04-01T09:12:37.121Z,97.25
2023-04-01T09:15:13.121Z,97.42
2023-04-01T09:18:04.289Z,98.02
2023-04-01T09:20:34.620Z,99.28
2023-04-01T09:23:07.090Z,99.18
2023-04-01T09:26:02.753Z,97.86
2023-04-01T09:28:48.873Z,97.77
2023-04-01T09:31:22.516Z,98.36
2023-04-01T09:34:11.487Z,98.17
2023-04-01T09:37:05.986Z,98.55
2023-04-01T09:39:55.439Z,98.85
2023-04-01T09:42:28.159Z,98.00
2023-04-01T09:45:27.373Z,96.57
2023-04-01T09:48:16.082Z,95.92
2023-04-01T09:50:45.033Z,95.39
2023-04-01T09:53:14.646Z,96.93
2023-04-01T09:56:12.165Z,95.93
2023-04-01T09:58:43.381Z,94.97
2023-04-01T10:01:29.365Z,95.82
2023-04-01T10:04:15.651Z,94.86
2023-04-01T10:07:16.073Z,94.84
2023-04-01T10:10:20.412Z,93.29
2023-04-01T10:13:08.560Z,93.34
2023-04-01T10:16:26.107Z,93.57
2023-04-01T10:19:20.441Z,94.34
2023-04-01T10:22:05.866Z,94.34
2023-04-01T10:24:51.401Z,94.24
2023-04-01T10:27:20.977Z,95.30
2023-04-01T10:30:15.145Z,95.94
2023-04-01T10:32:50.326Z,94.77
2023-04-01T10:35:54.489Z,95.12
2023-04-01T10:39:00.110Z,94.42
2023-04-01T10:41:45.622Z,94.52
2023-04-01T10:44:30.601Z,94.81
2023-04-01T10:47:18.122Z,94.28
2023-04-01T10:50:09.643Z,95.52
2023-04-01T10:52:48.625Z,94.70
2023-04-01T10:55:38.379Z,94.70
2023-04-01T10:58:38.811Z,94.81
2023-04-01T11:01:30.101Z,95.73
2023-04-01T11:04:02.899Z,94.86
2023-04-01T11:06:29.629Z,95.05
2023-04-01T11:08:59.221Z,94.29
2023-04-01T11:12:03.145Z,92.84
2023-04-01T11:14:58.964Z,92.94
2023-04-01T11:17:31.806Z,93.39
2023-04-01T11:20:33.399Z,93.40
2023-04-01T11:23:18.689Z,93.40
2023-04-01T11:26:00.516Z,93.54
2023-04-01T11:28:48.870Z,94.08
2023-04-01T11:31:18.432Z,94.38
2023-04-01T11:33:54.300Z,93.98
2023-04-01T11:36:34.106Z,93.63
2023-04-01T11:39:29.307Z,93.38
2023-04-01T11:42:33.280Z,92.28
2023-04-01T11:45:19.294Z,92.25
2023-04-01T11:47:52.293Z,92.13
2023-04-01T11:50:28.485Z,92.24
2023-04-01T11:53:07.345Z,91.93
2023-04-01T11:55:41.840Z,92.39
2023-04-01T11:58:27.073Z,92.07
2023-04-01T12:01:15.779Z,91.69
2023-04-01T12:04:03.612Z,92.00
2023-04-01T12:06:49.184Z,89.96
2023-04-01T12:09:34.586Z,89.83
2023-04-01T12:12:29.347Z,90.06
2023-04-01T12:14:58.810Z,90.59
2023-04-01T12:17:51.137Z,90.51
2023-04-01T12:20:48.687Z,90.36
2023-04-01T12:23:54.722Z,90.85
2023-04-01T12:26:31.599Z,90.62
2023-04-01T12:29:36.583Z,91.23
2023-04-01T12:32:26.178Z,91.35
2023-04-01T12:35:11.705Z,92.32
2023-04-01T12:37:53.512Z,92.89
2023-04-01T12:40:44.610Z,92.11
2023-04-01T12:43:43.596Z,92.35
2023-04-01T12:46:34.007Z,91.34
2023-04-01T12:49:06.695Z,90.46
2023-04-01T12:51:55.083Z,90.64
2023-04-01T12:54:40.624Z,90.67
2023-04-01T12:57:37.397Z,90.36
2023-04-01T13:00:26.114Z,91.69
2023-04-01T13:02:58.872Z,90.89
2023-04-01T13:05:48.116Z,91.18
2023-04-01T13:08:52.362Z,91.43
2023-04-01T13:12:00.468Z,91.58
2023-04-01T13:14:48.930Z,92.37
2023-04-01T13:17:41.281Z,91.51
2023-04-01T13:20:11.314Z,91.22
2023-04-01T13:22:58.488Z,91.14
2023-04-01T13:25:42.992Z,92.35
2023-04-01T13:28:12.597Z,93.80
2023-04-01T13:30:50.316Z,93.90
2023-04-01T13:33:30.789Z,92.56
2023-04-01T13:36:17.766Z,93.25
2023-04-01T13:39:06.941Z,93.18
2023-04-01T13:41:42.550Z,92.68
2023-04-01T13:44:46.399Z,94.22
2023-04-01T13:47:43.904Z,93.90
2023-04-01T13:50:35.181Z,92.29
2023-04-01T13:53:39.664Z,92.84
2023-04-01T13:56:28.069Z,93.62
2023-04-01T13:58:59.873Z,94.04
2023-04-01T14:01:52.266Z,94.36
2023-04-01T14:04:31.029Z,95.44
2023-04-01T14:07:06.857Z,95.15
2023-04-01T14:09:37.558Z,94.90
2023-04-01T14:12:22.746Z,96.03
2023-04-01T14:14:54.542Z,95.93
2023-04-01T14:17:27.534Z,96.43
2023-04-01T14:20:32.020Z,95.71
2023-04-01T14:22:58.767Z,96.37
2023-04-01T14:25:37.072Z,96.82
2023-04-01T14:28:35.146Z,97.59
2023-04-01T14:31:44.597Z,97.02
2023-04-01T14:34:29.754Z,97.05
2023-04-01T14:37:02.768Z,97.46
2023-04-01T14:39:35.885Z,97.14
2023-04-01T14:42:26.036Z,96.92
2023-04-01T14:45:22.020Z,98.36
2023-04-01T14:48:01.376Z,98.42
2023-04-01T14:50:41.432Z,98.77
2023-04-01T14:53:08.155Z,97.85
2023-04-01T14:55:54.405Z,99.14
2023-04-01T14:58:27.368Z,98.40
2023-04-01T15:01:20.139Z,98.29
2023-04-01T15:03:59.405Z,98.20
2023-04-01T15:06:36.995Z,98.02
2023-04-01T15:09:41.741Z,99.10
2023-04-01T15:12:23.670Z,99.14
2023-04-01T15:15:02.470Z,99.16
2023-04-01T15:17:53.684Z,99.68
2023-04-01T15:20:57.680Z,100.00
2023-04-01T15:23:42.933Z,100.00
2023-04-01T15:26:48.170Z,100.00
2023-04-01T15:29:18.039Z,100.00
2023-04-01T15:32:03.569Z,100.00
2023-04-01T15:34:34.080Z,100.00
2023-04-01T15:37:38.364Z,100.00
2023-04-01T15:40:29.794Z,100.00
2023-04-01T15:43:02.617Z,100.00
2023-04-01T15:46:06.771Z,100.00
2023-04-01T15:48:52.360Z,100.00
2023-04-01T15:51:41.181Z,100.00
2023-04-01T15:54:55.735Z,100.00
2023-04-01T15:57:34.437Z,100.00
2023-04-01T16:00:13.011Z,100.00
2023-04-01T16:03:17.247Z,100.00
2023-04-01T16:06:08.689Z,100.00
2023-04-01T16:08:47.809Z,100.00
2023-04-01T16:11:37.700Z,100.00
2023-04-01T16:14:27.183Z,100.00
2023-04-01T16:17:35.827Z,100.00
2023-04-01T16:20:36.690Z,100.00
2023-04-01T16:23:05.529Z,100.00
2023-04-01T16:25:38.215Z,100.00
2023-04-01T16:28:10.889Z,100.00
2023-04-01T16:30:47.146Z,100.00
2023-04-01T16:33:29.309Z,100.00
2023-04-01T16:36:02.253Z,100.00
2023-04-01T16:39:03.554Z,100.00
2023-04-01T16:41:35.453Z,100.00
2023-04-01T16:44:14.150Z,100.00
2023-04-01T16:47:01.524Z,100.00
2023-04-01T16:49:34.397Z,100.00
2023-04-01T16:52:12.012Z,100.00
2023-04-01T16:55:16.334Z,100.00
2023-04-01T16:57:53.486Z,100.00
2023-04-01T17:00:40.665Z,100.00
2023-04-01T17:03:18.439Z,100.00
2023-04-01T17:05:50.109Z,100.00
2023-04-01T17:08:36.207Z,100.00
2023-04-01T17:11:28.453Z,100.00
2023-04-01T17:14:29.050Z,100.00
2023-04-01T17:17:08.647Z,100.00
2023-04-01T17:19:42.844Z,100.00
2023-04-01T17:22:28.287Z,100.00
2023-04-01T17:25:26.236Z,100.00
2023-04-01T17:27:56.814Z,100.00
2023-04-01T17:30:30.232Z,100.00
2023-04-01T17:33:15.759Z,100.00
2023-04-01T17:36:08.480Z,100.00
2023-04-01T17:38:41.204Z,100.00
2023-04-01T17:41:29.652Z,100.00
2023-04-01T17:44:17.625Z,100.00
2023-04-01T17:46:56.787Z,100.00
2023-04-01T17:49:35.154Z,100.00
2023-04-01T17:52:23.550Z,100.00
2023-04-01T17:55:09.222Z,100.00
2023-04-01T17:58:07.450Z,100.00
2023-04-01T18:00:54.637Z,100.00
2023-04-01T18:03:58.867Z,100.00
2023-04-01T18:06:50.819Z,100.00
2023-04-01T18:09:31.266Z,100.00
2023-04-01T18:12:24.526Z,100.00
2023-04-01T18:15:28.850Z,100.00
2023-04-01T18:18:46.723Z,100.00
2023-04-01T18:21:43.980Z,100.00
2023-04-01T18:24:37.324Z,100.00
2023-04-01T18:27:23.835Z,100.00
2023-04-01T18:29:54.693Z,100.00
2023-04-01T18:32:32.078Z,100.00
2023-04-01T18:35:04.096Z,100.00
2023-04-01T18:37:57.512Z,100.00
2023-04-01T18:40:27.527Z,100.00
2023-04-01T18:43:03.763Z,100.00
2023-04-01T18:45:36.878Z,100.00
2023-04-01T18:48:12.837Z,100.00
2023-04-01T18:50:42.480Z,100.00
2023-04-01T18:53:31.225Z,100.00
2023-04-01T18:56:02.717Z,100.00
2023-04-01T18:58:32.406Z,100.00
2023-04-01T19:01:19.023Z,100.00
2023-04-01T19:03:46.683Z,100.00
2023-04-01T19:06:51.563Z,100.00
2023-04-01T19:09:27.547Z,100.00
2023-04-01T19:12:17.425Z,100.00
2023-04-01T19:15:21.339Z,100.00
2023-04-01T19:18:06.666Z,100.00
2023-04-01T19:20:48.224Z,100.00
2023-04-01T19:23:36.110Z,100.00
2023-04-01T19:26:06.267Z,100.00
2023-04-01T19:28:51.701Z,100.00
2023-04-01T19:31:53.771Z,100.00
2023-04-01T19:34:29.629Z,100.00
2023-04-01T19:37:18.429Z,100.00
2023-04-01T19:39:48.150Z,100.00
2023-04-01T19:42:36.455Z,100.00
2023-04-01T19:45:26.233Z,100.00
2023-04-01T19:48:02.109Z,100.00
2023-04-01T19:50:36.413Z,100.00
2023-04-01T19:53:33.316Z,100.00
2023-04-01T19:56:26.536Z,100.00
2023-04-01T19:59:06.916Z,100.00
2023-04-01T20:01:56.919Z,100.00
2023-04-01T20:04:32.578Z,100.00
2023-04-01T20:07:16.959Z,100.00
2023-04-01T20:09:54.291Z,100.00
2023-04-01T20:12:51.804Z,100.00
2023-04-01T20:15:35.994Z,100.00
2023-04-01T20:18:21.777Z,100.00
2023-04-01T20:21:30.395Z,100.00
2023-04-01T20:23:59.931Z,100.00
2023-04-01T20:26:30.513Z,100.00
2023-04-01T20:29:27.924Z,100.00
2023-04-01T20:32:25.997Z,100.00
2023-04-01T20:35:21.065Z,100.00
2023-04-01T20:37:55.769Z,100.00
2023-04-01T20:40:28.344Z,100.00
2023-04-01T20:43:07.290Z,100.00
2023-04-01T20:45:58.185Z,100.00
2023-04-01T20:48:51.093Z,100.00
2023-04-01T20:51:23.283Z,100.00
2023-04-01T20:53:52.619Z,100.00
2023-04-01T20:56:19.413Z,100.00
2023-04-01T20:59:24.959Z,100.00
2023-04-01T21:02:25.722Z,100.00
2023-04-01T21:05:24.228Z,100.00
2023-04-01T21:08:12.755Z,100.00
2023-04-01T21:11:01.431Z,100.00
2023-04-01T21:13:51.357Z,100.00
2023-04-01T21:16:24.225Z,100.00
2023-04-01T21:19:04.317Z,100.00
2023-04-01T21:21:49.732Z,100.00
2023-04-01T21:24:34.928Z,100.00
2023-04-01T21:27:32.233Z,100.00
2023-04-01T21:30:17.619Z,100.00
2023-04-01T21:33:07.427Z,100.00
2023-04-01T21:35:43.561Z,100.00
2023-04-01T21:38:22.025Z,100.00
2023-04-01T21:40:55.026Z,100.00
2023-04-01T21:43:46.474Z,100.00
2023-04-01T21:46:25.901Z,100.00
2023-04-01T21:49:17.464Z,100.00
2023-04-01T21:52:21.825Z,100.00
2023-04-01T21:55:10.410Z,100.00
2023-04-01T21:57:55.744Z,100.00
2023-04-01T22:00:26.482Z,100.00
2023-04-01T22:03:26.098Z,100.00
2023-04-01T22:06:11.760Z,100.00
2023-04-01T22:09:23.396Z,100.00
2023-04-01T22:12:14.468Z,100.00
2023-04-01T22:14:52.308Z,100.00
2023-04-01T22:17:25.260Z,100.00
2023-04-01T22:20:16.880Z,100.00
2023-04-01T22:23:22.406Z,100.00
2023-04-01T22:26:07.206Z,100.00
2023-04-01T22:28:43.002Z,100.00
2023-04-01T22:31:09.848Z,100.00
2023-04-01T22:33:40.000Z,100.00
2023-04-01T22:36:28.477Z,100.00
2023-04-01T22:39:04.162Z,100.00
2023-04-01T22:41:50.044Z,100.00
2023-04-01T22:44:21.971Z,100.00
2023-04-01T22:46:51.898Z,100.00
2023-04-01T22:49:25.018Z,100.00
2023-04-01T22:51:52.930Z,100.00
2023-04-01T22:54:22.424Z,100.00
2023-04-01T22:57:16.676Z,100.00
2023-04-01T22:59:58.046Z,100.00
2023-04-01T23:02:29.955Z,100.00
2023-04-01T23:05:01.753Z,100.00
2023-04-01T23:07:56.348Z,100.00
2023-04-01T23:10:27.427Z,100.00
2023-04-01T23:12:56.492Z,100.00
2023-04-01T23:15:23.356Z,100.00
2023-04-01T23:18:27.672Z,100.00
2023-04-01T23:21:14.600Z,100.00
2023-04-01T23:23:50.320Z,100.00
2023-04-01T23:26:23.056Z,100.00
2023-04-01T23:28:51.900Z,100.00
2023-04-01T23:31:43.408Z,100.00
2023-04-01T23:34:13.034Z,100.00
2023-04-01T23:36:48.115Z,100.00
2023-04-01T23:39:48.672Z,100.00
2023-04-01T23:42:16.973Z,100.00
2023-04-01T23:44:44.854Z,100.00
2023-04-01T23:47:15.765Z,100.00
2023-04-01T23:49:45.232Z,100.00
2023-04-01T23:52:32.065Z,100.00
2023-04-01T23:55:37.596Z,100.00
2023-04-01T23:58:07.644Z,100.00
